sensor_id;sensor_type;location;lat;lon;timestamp;temperature;humidity
38183;DHT22;23991;52.430;10.586;2023-03-01T00:01:39;0.00;66.10
38183;DHT22;23991;52.430;10.586;2023-03-01T00:04:05;0.00;66.50
38183;DHT22;23991;52.430;10.586;2023-03-01T00:06:30;0.00;66.30
38183;DHT22;23991;52.430;10.586;2023-03-01T00:08:56;0.00;65.90
38183;DHT22;23991;52.430;10.586;2023-03-01T00:11:24;-3276.70;65.60
38183;DHT22;23991;52.430;10.586;2023-03-01T00:13:52;-3276.70;65.50
38183;DHT22;23991;52.430;10.586;2023-03-01T00:16:26;-3276.70;65.40
38183;DHT22;23991;52.430;10.586;2023-03-01T00:18:54;-3276.70;65.60
38183;DHT22;23991;52.430;10.586;2023-03-01T00:21:20;-3276.60;65.70
38183;DHT22;23991;52.430;10.586;2023-03-01T00:23:46;-3276.60;65.70
38183;DHT22;23991;52.430;10.586;2023-03-01T00:26:14;-3276.50;66.10
38183;DHT22;23991;52.430;10.586;2023-03-01T00:28:41;-3276.50;66.00
38183;DHT22;23991;52.430;10.586;2023-03-01T00:31:09;-3276.50;65.70
38183;DHT22;23991;52.430;10.586;2023-03-01T00:33:35;-3276.50;65.90
38183;DHT22;23991;52.430;10.586;2023-03-01T00:36:01;-3276.40;66.00
38183;DHT22;23991;52.430;10.586;2023-03-01T00:38:27;-3276.40;66.70
38183;DHT22;23991;52.430;10.586;2023-03-01T00:40:52;-3276.40;66.80
38183;DHT22;23991;52.430;10.586;2023-03-01T00:43:18;-3276.40;66.40
38183;DHT22;23991;52.430;10.586;2023-03-01T00:45:44;-3276.30;66.20
38183;DHT22;23991;52.430;10.586;2023-03-01T00:48:10;-3276.40;66.00
38183;DHT22;23991;52.430;10.586;2023-03-01T00:50:35;-3276.30;66.30
38183;DHT22;23991;52.430;10.586;2023-03-01T00:53:01;-3276.30;66.60
38183;DHT22;23991;52.430;10.586;2023-03-01T00:55:27;-3276.30;66.70
38183;DHT22;23991;52.430;10.586;2023-03-01T00:57:52;-3276.20;67.00
38183;DHT22;23991;52.430;10.586;2023-03-01T01:00:19;-3276.20;66.70
38183;DHT22;23991;52.430;10.586;2023-03-01T01:02:45;-3276.20;66.40
38183;DHT22;23991;52.430;10.586;2023-03-01T01:05:11;-3276.20;66.10
38183;DHT22;23991;52.430;10.586;2023-03-01T01:07:37;-3276.10;65.90
38183;DHT22;23991;52.430;10.586;2023-03-01T01:10:03;-3276.10;65.80
38183;DHT22;23991;52.430;10.586;2023-03-01T01:12:29;-3276.10;66.10
38183;DHT22;23991;52.430;10.586;2023-03-01T01:14:54;-3276.10;66.20
38183;DHT22;23991;52.430;10.586;2023-03-01T01:17:20;-3276.10;66.30
38183;DHT22;23991;52.430;10.586;2023-03-01T01:19:45;-3276.10;66.30
38183;DHT22;23991;52.430;10.586;2023-03-01T01:22:11;-3276.00;66.20
38183;DHT22;23991;52.430;10.586;2023-03-01T01:24:37;-3276.00;66.20
38183;DHT22;23991;52.430;10.586;2023-03-01T01:27:02;-3275.90;66.80
38183;DHT22;23991;52.430;10.586;2023-03-01T01:29:28;-3275.90;67.30
38183;DHT22;23991;52.430;10.586;2023-03-01T01:31:53;-3275.90;67.50
38183;DHT22;23991;52.430;10.586;2023-03-01T01:34:21;-3275.90;67.40
38183;DHT22;23991;52.430;10.586;2023-03-01T01:36:51;-3275.90;67.10
38183;DHT22;23991;52.430;10.586;2023-03-01T01:39:18;-3275.80;66.80
38183;DHT22;23991;52.430;10.586;2023-03-01T01:41:44;-3275.80;67.40
38183;DHT22;23991;52.430;10.586;2023-03-01T01:44:24;-3275.80;67.90
38183;DHT22;23991;52.430;10.586;2023-03-01T01:47:06;-3275.80;67.80
38183;DHT22;23991;52.430;10.586;2023-03-01T01:52:37;-3275.70;67.20
38183;DHT22;23991;52.430;10.586;2023-03-01T01:55:10;-3275.70;67.10
38183;DHT22;23991;52.430;10.586;2023-03-01T01:57:40;-3275.70;67.20
38183;DHT22;23991;52.430;10.586;2023-03-01T02:00:10;-3275.70;67.40
38183;DHT22;23991;52.430;10.586;2023-03-01T02:02:38;-3275.70;67.20
38183;DHT22;23991;52.430;10.586;2023-03-01T02:08:05;-3275.60;67.80
38183;DHT22;23991;52.430;10.586;2023-03-01T02:10:33;-3275.60;68.00
38183;DHT22;23991;52.430;10.586;2023-03-01T02:13:00;-3275.60;68.00
38183;DHT22;23991;52.430;10.586;2023-03-01T02:15:26;-3275.60;68.20
38183;DHT22;23991;52.430;10.586;2023-03-01T02:17:53;-3275.60;68.60
38183;DHT22;23991;52.430;10.586;2023-03-01T02:20:33;-3275.60;68.50
38183;DHT22;23991;52.430;10.586;2023-03-01T02:23:00;-3275.50;68.80
38183;DHT22;23991;52.430;10.586;2023-03-01T02:25:52;-3275.50;69.30
38183;DHT22;23991;52.430;10.586;2023-03-01T02:28:32;-3275.50;69.60
38183;DHT22;23991;52.430;10.586;2023-03-01T02:30:58;-3275.40;70.00
38183;DHT22;23991;52.430;10.586;2023-03-01T02:33:43;-3275.40;70.30
38183;DHT22;23991;52.430;10.586;2023-03-01T02:36:30;-3275.30;70.50
38183;DHT22;23991;52.430;10.586;2023-03-01T02:38:58;-3275.30;70.80
38183;DHT22;23991;52.430;10.586;2023-03-01T02:41:26;-3275.30;70.80
38183;DHT22;23991;52.430;10.586;2023-03-01T02:43:53;-3275.30;70.70
38183;DHT22;23991;52.430;10.586;2023-03-01T02:46:22;-3275.30;71.00
38183;DHT22;23991;52.430;10.586;2023-03-01T02:48:50;-3275.30;70.70
38183;DHT22;23991;52.430;10.586;2023-03-01T02:56:46;-3275.30;70.30
38183;DHT22;23991;52.430;10.586;2023-03-01T02:59:17;-3275.30;69.70
38183;DHT22;23991;52.430;10.586;2023-03-01T03:01:43;-3275.30;69.80
38183;DHT22;23991;52.430;10.586;2023-03-01T03:04:12;-3275.20;69.90
38183;DHT22;23991;52.430;10.586;2023-03-01T03:06:43;-3275.20;69.80
38183;DHT22;23991;52.430;10.586;2023-03-01T03:09:08;-3275.20;69.60
38183;DHT22;23991;52.430;10.586;2023-03-01T03:11:34;-3275.20;69.70
38183;DHT22;23991;52.430;10.586;2023-03-01T03:13:59;-3275.20;69.50
38183;DHT22;23991;52.430;10.586;2023-03-01T03:16:25;-3275.10;68.90
38183;DHT22;23991;52.430;10.586;2023-03-01T03:18:51;-3275.10;68.70
38183;DHT22;23991;52.430;10.586;2023-03-01T03:21:17;-3275.10;68.30
38183;DHT22;23991;52.430;10.586;2023-03-01T03:23:43;-3275.10;68.00
38183;DHT22;23991;52.430;10.586;2023-03-01T03:26:08;-3275.10;68.10
38183;DHT22;23991;52.430;10.586;2023-03-01T03:28:38;-3275.10;68.30
38183;DHT22;23991;52.430;10.586;2023-03-01T03:31:06;-3275.10;68.40
38183;DHT22;23991;52.430;10.586;2023-03-01T03:33:32;-3275.00;68.90
38183;DHT22;23991;52.430;10.586;2023-03-01T03:35:58;-3275.00;69.10
38183;DHT22;23991;52.430;10.586;2023-03-01T03:38:23;-3275.00;69.50
38183;DHT22;23991;52.430;10.586;2023-03-01T03:40:59;-3275.00;69.70
38183;DHT22;23991;52.430;10.586;2023-03-01T03:43:28;-3275.00;69.50
38183;DHT22;23991;52.430;10.586;2023-03-01T03:45:53;-3274.90;69.60
38183;DHT22;23991;52.430;10.586;2023-03-01T03:48:20;-3275.00;69.30
38183;DHT22;23991;52.430;10.586;2023-03-01T03:50:51;-3274.90;68.70
38183;DHT22;23991;52.430;10.586;2023-03-01T03:53:17;-3274.90;68.50
38183;DHT22;23991;52.430;10.586;2023-03-01T03:55:43;-3274.90;68.20
38183;DHT22;23991;52.430;10.586;2023-03-01T03:58:10;-3274.90;68.10
38183;DHT22;23991;52.430;10.586;2023-03-01T04:00:38;-3274.90;68.00
38183;DHT22;23991;52.430;10.586;2023-03-01T04:03:04;-3274.80;68.00
38183;DHT22;23991;52.430;10.586;2023-03-01T04:05:30;-3274.80;68.10
38183;DHT22;23991;52.430;10.586;2023-03-01T04:07:56;-3274.80;68.10
38183;DHT22;23991;52.430;10.586;2023-03-01T04:10:31;-3274.80;68.40
38183;DHT22;23991;52.430;10.586;2023-03-01T04:12:57;-3274.80;68.40
38183;DHT22;23991;52.430;10.586;2023-03-01T04:15:24;-3274.70;68.60
38183;DHT22;23991;52.430;10.586;2023-03-01T04:17:51;-3274.70;68.70
38183;DHT22;23991;52.430;10.586;2023-03-01T04:20:23;-3274.70;68.60
38183;DHT22;23991;52.430;10.586;2023-03-01T04:23:08;-3274.70;68.70
38183;DHT22;23991;52.430;10.586;2023-03-01T04:25:40;-3274.70;68.70
38183;DHT22;23991;52.430;10.586;2023-03-01T04:28:06;-3274.70;68.80
38183;DHT22;23991;52.430;10.586;2023-03-01T04:30:32;-3274.70;69.00
38183;DHT22;23991;52.430;10.586;2023-03-01T04:33:05;-3274.60;69.00
38183;DHT22;23991;52.430;10.586;2023-03-01T04:35:32;-3274.70;68.80
38183;DHT22;23991;52.430;10.586;2023-03-01T04:37:58;-3274.70;68.50
38183;DHT22;23991;52.430;10.586;2023-03-01T04:40:24;-3274.60;68.50
38183;DHT22;23991;52.430;10.586;2023-03-01T04:42:50;-3274.60;68.40
38183;DHT22;23991;52.430;10.586;2023-03-01T04:45:16;-3274.60;68.40
38183;DHT22;23991;52.430;10.586;2023-03-01T04:47:43;-3274.60;68.40
38183;DHT22;23991;52.430;10.586;2023-03-01T04:50:11;-3274.50;68.40
38183;DHT22;23991;52.430;10.586;2023-03-01T04:52:37;-3274.50;69.00
38183;DHT22;23991;52.430;10.586;2023-03-01T04:55:03;-3274.50;69.40
38183;DHT22;23991;52.430;10.586;2023-03-01T04:57:29;-3274.50;69.60
38183;DHT22;23991;52.430;10.586;2023-03-01T04:59:55;-3274.50;69.60
38183;DHT22;23991;52.430;10.586;2023-03-01T05:02:21;-3274.40;69.80
38183;DHT22;23991;52.430;10.586;2023-03-01T05:04:46;-3274.40;69.60
38183;DHT22;23991;52.430;10.586;2023-03-01T05:07:12;-3274.40;69.50
38183;DHT22;23991;52.430;10.586;2023-03-01T05:09:38;-3274.40;69.40
38183;DHT22;23991;52.430;10.586;2023-03-01T05:12:04;-3274.40;69.30
38183;DHT22;23991;52.430;10.586;2023-03-01T05:14:30;-3274.40;69.40
38183;DHT22;23991;52.430;10.586;2023-03-01T05:16:55;-3274.40;69.30
38183;DHT22;23991;52.430;10.586;2023-03-01T05:19:29;-3274.40;69.30
38183;DHT22;23991;52.430;10.586;2023-03-01T05:21:57;-3274.40;69.30
38183;DHT22;23991;52.430;10.586;2023-03-01T05:24:33;-3274.30;69.30
38183;DHT22;23991;52.430;10.586;2023-03-01T05:27:00;-3274.30;69.20
38183;DHT22;23991;52.430;10.586;2023-03-01T05:29:28;-3274.30;69.10
38183;DHT22;23991;52.430;10.586;2023-03-01T05:31:55;-3274.30;69.20
38183;DHT22;23991;52.430;10.586;2023-03-01T05:34:25;-3274.30;69.50
38183;DHT22;23991;52.430;10.586;2023-03-01T05:36:52;-3274.30;69.30
38183;DHT22;23991;52.430;10.586;2023-03-01T05:39:20;-3274.20;68.90
38183;DHT22;23991;52.430;10.586;2023-03-01T05:41:47;-3274.20;68.80
38183;DHT22;23991;52.430;10.586;2023-03-01T05:44:13;-3274.20;68.60
38183;DHT22;23991;52.430;10.586;2023-03-01T05:46:39;-3274.20;68.70
38183;DHT22;23991;52.430;10.586;2023-03-01T05:49:04;-3274.10;69.40
38183;DHT22;23991;52.430;10.586;2023-03-01T05:51:30;-3274.10;69.70
38183;DHT22;23991;52.430;10.586;2023-03-01T05:53:56;-3274.10;69.40
38183;DHT22;23991;52.430;10.586;2023-03-01T05:56:21;-3274.10;69.10
38183;DHT22;23991;52.430;10.586;2023-03-01T05:58:50;-3274.10;69.00
38183;DHT22;23991;52.430;10.586;2023-03-01T06:01:16;-3274.10;69.30
38183;DHT22;23991;52.430;10.586;2023-03-01T06:03:41;-3274.10;69.70
38183;DHT22;23991;52.430;10.586;2023-03-01T06:06:07;-3274.00;69.90
38183;DHT22;23991;52.430;10.586;2023-03-01T06:08:33;-3274.10;70.00
38183;DHT22;23991;52.430;10.586;2023-03-01T06:10:58;-3274.10;70.60
38183;DHT22;23991;52.430;10.586;2023-03-01T06:13:24;-3274.00;70.90
38183;DHT22;23991;52.430;10.586;2023-03-01T06:15:50;-3274.10;71.20
38183;DHT22;23991;52.430;10.586;2023-03-01T06:18:15;-3274.10;70.90
38183;DHT22;23991;52.430;10.586;2023-03-01T06:20:41;-3274.10;70.40
38183;DHT22;23991;52.430;10.586;2023-03-01T06:23:06;-3274.20;70.40
38183;DHT22;23991;52.430;10.586;2023-03-01T06:25:32;-3274.20;70.00
38183;DHT22;23991;52.430;10.586;2023-03-01T06:27:58;-3274.30;70.00
38183;DHT22;23991;52.430;10.586;2023-03-01T06:30:25;-3274.30;69.50
38183;DHT22;23991;52.430;10.586;2023-03-01T06:32:51;-3274.40;69.30
38183;DHT22;23991;52.430;10.586;2023-03-01T06:35:17;-3274.50;69.00
38183;DHT22;23991;52.430;10.586;2023-03-01T06:37:44;-3274.50;68.70
38183;DHT22;23991;52.430;10.586;2023-03-01T06:40:11;-3274.60;68.90
38183;DHT22;23991;52.430;10.586;2023-03-01T06:42:39;-3274.60;69.60
38183;DHT22;23991;52.430;10.586;2023-03-01T06:45:06;-3274.80;69.00
38183;DHT22;23991;52.430;10.586;2023-03-01T06:47:32;-3274.80;68.60
38183;DHT22;23991;52.430;10.586;2023-03-01T06:50:02;-3274.90;68.70
38183;DHT22;23991;52.430;10.586;2023-03-01T06:52:28;-3274.90;69.20
38183;DHT22;23991;52.430;10.586;2023-03-01T06:54:53;-3275.00;68.80
38183;DHT22;23991;52.430;10.586;2023-03-01T06:57:19;-3275.10;68.50
38183;DHT22;23991;52.430;10.586;2023-03-01T06:59:44;-3275.20;68.80
38183;DHT22;23991;52.430;10.586;2023-03-01T07:02:12;-3275.20;69.30
38183;DHT22;23991;52.430;10.586;2023-03-01T07:04:38;-3275.30;69.40
38183;DHT22;23991;52.430;10.586;2023-03-01T07:07:04;-3275.40;69.00
38183;DHT22;23991;52.430;10.586;2023-03-01T07:09:29;-3275.50;69.30
38183;DHT22;23991;52.430;10.586;2023-03-01T07:11:56;-3275.50;69.40
38183;DHT22;23991;52.430;10.586;2023-03-01T07:14:22;-3275.80;68.80
38183;DHT22;23991;52.430;10.586;2023-03-01T07:16:49;-3275.90;68.40
38183;DHT22;23991;52.430;10.586;2023-03-01T07:19:15;-3276.00;68.50
38183;DHT22;23991;52.430;10.586;2023-03-01T07:21:41;-3276.20;68.90
38183;DHT22;23991;52.430;10.586;2023-03-01T07:24:08;-3276.40;68.70
38183;DHT22;23991;52.430;10.586;2023-03-01T07:26:33;-3276.70;68.90
38183;DHT22;23991;52.430;10.586;2023-03-01T07:29:00;0.00;68.60
38183;DHT22;23991;52.430;10.586;2023-03-01T07:31:25;0.30;68.10
38183;DHT22;23991;52.430;10.586;2023-03-01T07:33:53;0.60;66.90
38183;DHT22;23991;52.430;10.586;2023-03-01T07:36:19;0.90;66.00
38183;DHT22;23991;52.430;10.586;2023-03-01T07:38:45;1.10;65.40
38183;DHT22;23991;52.430;10.586;2023-03-01T07:41:10;1.20;65.80
38183;DHT22;23991;52.430;10.586;2023-03-01T07:43:36;1.40;65.20
38183;DHT22;23991;52.430;10.586;2023-03-01T07:46:02;1.50;64.60
38183;DHT22;23991;52.430;10.586;2023-03-01T07:48:29;2.00;63.70
38183;DHT22;23991;52.430;10.586;2023-03-01T07:50:57;2.20;62.80
38183;DHT22;23991;52.430;10.586;2023-03-01T07:53:23;2.70;62.30
38183;DHT22;23991;52.430;10.586;2023-03-01T07:55:48;3.10;60.60
38183;DHT22;23991;52.430;10.586;2023-03-01T07:58:14;3.40;59.80
38183;DHT22;23991;52.430;10.586;2023-03-01T08:00:39;3.60;59.30
38183;DHT22;23991;52.430;10.586;2023-03-01T08:03:05;3.90;58.60
38183;DHT22;23991;52.430;10.586;2023-03-01T08:05:30;4.20;57.80
38183;DHT22;23991;52.430;10.586;2023-03-01T08:07:56;4.40;57.80
38183;DHT22;23991;52.430;10.586;2023-03-01T08:10:21;4.70;56.40
38183;DHT22;23991;52.430;10.586;2023-03-01T08:12:47;4.80;56.20
38183;DHT22;23991;52.430;10.586;2023-03-01T08:15:12;5.10;56.00
38183;DHT22;23991;52.430;10.586;2023-03-01T08:17:38;5.30;55.10
38183;DHT22;23991;52.430;10.586;2023-03-01T08:20:04;5.70;54.80
38183;DHT22;23991;52.430;10.586;2023-03-01T08:22:32;6.00;54.00
38183;DHT22;23991;52.430;10.586;2023-03-01T08:24:57;6.30;53.80
38183;DHT22;23991;52.430;10.586;2023-03-01T08:27:23;6.70;51.90
38183;DHT22;23991;52.430;10.586;2023-03-01T08:29:48;6.80;52.50
38183;DHT22;23991;52.430;10.586;2023-03-01T08:32:14;7.00;51.50
38183;DHT22;23991;52.430;10.586;2023-03-01T08:34:39;7.60;49.80
38183;DHT22;23991;52.430;10.586;2023-03-01T08:37:05;7.50;49.60
38183;DHT22;23991;52.430;10.586;2023-03-01T08:39:30;7.60;49.30
38183;DHT22;23991;52.430;10.586;2023-03-01T08:41:56;8.20;48.50
38183;DHT22;23991;52.430;10.586;2023-03-01T08:44:22;8.40;48.70
38183;DHT22;23991;52.430;10.586;2023-03-01T08:46:47;8.90;47.40
38183;DHT22;23991;52.430;10.586;2023-03-01T08:49:17;9.10;46.30
38183;DHT22;23991;52.430;10.586;2023-03-01T08:51:44;9.40;46.10
38183;DHT22;23991;52.430;10.586;2023-03-01T08:54:20;9.60;44.80
38183;DHT22;23991;52.430;10.586;2023-03-01T08:56:47;9.90;44.50
38183;DHT22;23991;52.430;10.586;2023-03-01T08:59:14;10.10;44.30
38183;DHT22;23991;52.430;10.586;2023-03-01T09:01:41;10.20;44.00
38183;DHT22;23991;52.430;10.586;2023-03-01T09:04:09;10.70;42.50
38183;DHT22;23991;52.430;10.586;2023-03-01T09:06:35;10.90;42.40
38183;DHT22;23991;52.430;10.586;2023-03-01T09:09:02;10.80;42.40
38183;DHT22;23991;52.430;10.586;2023-03-01T09:11:28;11.00;42.10
38183;DHT22;23991;52.430;10.586;2023-03-01T09:13:54;11.20;41.50
38183;DHT22;23991;52.430;10.586;2023-03-01T09:16:21;11.60;40.40
38183;DHT22;23991;52.430;10.586;2023-03-01T09:18:55;12.00;39.70
38183;DHT22;23991;52.430;10.586;2023-03-01T09:21:23;12.00;38.40
38183;DHT22;23991;52.430;10.586;2023-03-01T09:23:49;12.50;37.90
38183;DHT22;23991;52.430;10.586;2023-03-01T09:26:20;12.60;38.00
38183;DHT22;23991;52.430;10.586;2023-03-01T09:28:48;13.00;37.60
38183;DHT22;23991;52.430;10.586;2023-03-01T09:31:15;13.40;36.10
38183;DHT22;23991;52.430;10.586;2023-03-01T09:33:41;13.90;35.80
38183;DHT22;23991;52.430;10.586;2023-03-01T09:36:20;14.10;34.80
38183;DHT22;23991;52.430;10.586;2023-03-01T09:38:47;14.10;34.90
38183;DHT22;23991;52.430;10.586;2023-03-01T09:41:24;14.30;34.90
38183;DHT22;23991;52.430;10.586;2023-03-01T09:46:42;15.20;32.70
38183;DHT22;23991;52.430;10.586;2023-03-01T09:49:18;15.40;32.70
38183;DHT22;23991;52.430;10.586;2023-03-01T09:52:19;15.70;32.70
38183;DHT22;23991;52.430;10.586;2023-03-01T09:54:39;16.10;31.40
38183;DHT22;23991;52.430;10.586;2023-03-01T09:57:15;16.00;31.50
38183;DHT22;23991;52.430;10.586;2023-03-01T10:02:45;16.20;31.30
38183;DHT22;23991;52.430;10.586;2023-03-01T10:05:35;16.10;31.60
38183;DHT22;23991;52.430;10.586;2023-03-01T10:10:38;16.90;29.60
38183;DHT22;23991;52.430;10.586;2023-03-01T10:13:20;17.30;27.60
38183;DHT22;23991;52.430;10.586;2023-03-01T10:16:03;17.30;28.10
38183;DHT22;23991;52.430;10.586;2023-03-01T10:18:32;17.70;27.40
38183;DHT22;23991;52.430;10.586;2023-03-01T10:21:00;17.70;27.10
38183;DHT22;23991;52.430;10.586;2023-03-01T10:23:27;18.10;26.90
38183;DHT22;23991;52.430;10.586;2023-03-01T10:26:01;18.30;26.30
38183;DHT22;23991;52.430;10.586;2023-03-01T10:31:14;18.70;26.10
38183;DHT22;23991;52.430;10.586;2023-03-01T10:33:41;18.80;25.70
38183;DHT22;23991;52.430;10.586;2023-03-01T10:36:07;19.00;24.90
38183;DHT22;23991;52.430;10.586;2023-03-01T10:38:52;19.10;25.30
38183;DHT22;23991;52.430;10.586;2023-03-01T10:41:19;19.30;24.70
38183;DHT22;23991;52.430;10.586;2023-03-01T10:43:49;19.00;24.40
38183;DHT22;23991;52.430;10.586;2023-03-01T10:46:36;19.20;24.30
38183;DHT22;23991;52.430;10.586;2023-03-01T10:49:15;19.70;23.30
38183;DHT22;23991;52.430;10.586;2023-03-01T10:51:44;20.10;23.00
38183;DHT22;23991;52.430;10.586;2023-03-01T10:54:28;20.10;23.10
38183;DHT22;23991;52.430;10.586;2023-03-01T10:56:56;20.10;22.90
38183;DHT22;23991;52.430;10.586;2023-03-01T10:59:36;20.80;22.40
38183;DHT22;23991;52.430;10.586;2023-03-01T11:02:25;20.40;22.80
38183;DHT22;23991;52.430;10.586;2023-03-01T11:07:22;20.50;22.50
38183;DHT22;23991;52.430;10.586;2023-03-01T11:09:48;20.80;21.80
38183;DHT22;23991;52.430;10.586;2023-03-01T11:12:15;20.70;22.20
38183;DHT22;23991;52.430;10.586;2023-03-01T11:14:54;20.70;22.80
38183;DHT22;23991;52.430;10.586;2023-03-01T11:22:48;21.10;21.30
38183;DHT22;23991;52.430;10.586;2023-03-01T11:25:15;21.60;20.90
38183;DHT22;23991;52.430;10.586;2023-03-01T11:27:44;21.70;21.30
38183;DHT22;23991;52.430;10.586;2023-03-01T11:30:29;21.80;21.00
38183;DHT22;23991;52.430;10.586;2023-03-01T11:33:11;21.80;20.60
38183;DHT22;23991;52.430;10.586;2023-03-01T11:35:44;22.20;20.60
38183;DHT22;23991;52.430;10.586;2023-03-01T11:40:41;22.40;20.00
38183;DHT22;23991;52.430;10.586;2023-03-01T11:49:00;21.90;20.80
38183;DHT22;23991;52.430;10.586;2023-03-01T11:51:40;21.90;20.20
38183;DHT22;23991;52.430;10.586;2023-03-01T11:56:55;21.70;20.80
38183;DHT22;23991;52.430;10.586;2023-03-01T12:02:12;21.80;20.90
38183;DHT22;23991;52.430;10.586;2023-03-01T12:10:26;22.40;20.10
38183;DHT22;23991;52.430;10.586;2023-03-01T12:13:21;22.70;19.80
38183;DHT22;23991;52.430;10.586;2023-03-01T12:16:08;22.40;20.40
38183;DHT22;23991;52.430;10.586;2023-03-01T12:19:17;22.30;20.40
38183;DHT22;23991;52.430;10.586;2023-03-01T12:22:17;22.50;20.10
38183;DHT22;23991;52.430;10.586;2023-03-01T12:28:02;22.30;20.00
38183;DHT22;23991;52.430;10.586;2023-03-01T12:31:00;22.70;19.50
38183;DHT22;23991;52.430;10.586;2023-03-01T12:33:57;22.80;19.10
38183;DHT22;23991;52.430;10.586;2023-03-01T12:36:50;22.80;19.30
38183;DHT22;23991;52.430;10.586;2023-03-01T12:42:30;22.80;19.40
38183;DHT22;23991;52.430;10.586;2023-03-01T12:50:28;22.10;19.30
38183;DHT22;23991;52.430;10.586;2023-03-01T12:52:58;21.80;19.60
38183;DHT22;23991;52.430;10.586;2023-03-01T12:55:39;22.00;19.40
38183;DHT22;23991;52.430;10.586;2023-03-01T13:04:20;22.00;19.60
38183;DHT22;23991;52.430;10.586;2023-03-01T13:12:51;22.70;19.80
38183;DHT22;23991;52.430;10.586;2023-03-01T13:18:00;23.20;18.70
38183;DHT22;23991;52.430;10.586;2023-03-01T13:23:12;22.60;19.50
38183;DHT22;23991;52.430;10.586;2023-03-01T13:26:01;22.20;19.40
38183;DHT22;23991;52.430;10.586;2023-03-01T13:33:51;22.00;19.90
38183;DHT22;23991;52.430;10.586;2023-03-01T13:39:27;22.30;19.10
38183;DHT22;23991;52.430;10.586;2023-03-01T13:41:55;21.60;20.00
38183;DHT22;23991;52.430;10.586;2023-03-01T13:44:30;22.10;20.10
38183;DHT22;23991;52.430;10.586;2023-03-01T13:47:08;21.70;19.90
38183;DHT22;23991;52.430;10.586;2023-03-01T13:49:47;21.60;19.90
38183;DHT22;23991;52.430;10.586;2023-03-01T13:52:37;21.50;19.80
38183;DHT22;23991;52.430;10.586;2023-03-01T13:55:38;20.90;19.90
38183;DHT22;23991;52.430;10.586;2023-03-01T13:58:16;21.50;19.90
38183;DHT22;23991;52.430;10.586;2023-03-01T14:00:43;21.30;20.40
38183;DHT22;23991;52.430;10.586;2023-03-01T14:05:38;21.50;20.40
38183;DHT22;23991;52.430;10.586;2023-03-01T14:08:05;21.50;20.10
38183;DHT22;23991;52.430;10.586;2023-03-01T14:16:45;20.90;20.30
38183;DHT22;23991;52.430;10.586;2023-03-01T14:19:25;20.50;21.50
38183;DHT22;23991;52.430;10.586;2023-03-01T14:22:25;20.20;21.10
38183;DHT22;23991;52.430;10.586;2023-03-01T14:24:56;20.20;21.50
38183;DHT22;23991;52.430;10.586;2023-03-01T14:27:25;20.30;21.90
38183;DHT22;23991;52.430;10.586;2023-03-01T14:29:57;20.30;21.60
38183;DHT22;23991;52.430;10.586;2023-03-01T14:32:31;20.20;21.90
38183;DHT22;23991;52.430;10.586;2023-03-01T14:34:59;20.10;22.00
38183;DHT22;23991;52.430;10.586;2023-03-01T14:37:26;19.70;22.10
38183;DHT22;23991;52.430;10.586;2023-03-01T14:39:53;19.80;22.20
38183;DHT22;23991;52.430;10.586;2023-03-01T14:42:21;19.80;22.10
38183;DHT22;23991;52.430;10.586;2023-03-01T14:44:50;19.80;21.90
38183;DHT22;23991;52.430;10.586;2023-03-01T14:47:29;20.20;21.70
38183;DHT22;23991;52.430;10.586;2023-03-01T14:52:59;19.50;22.90
38183;DHT22;23991;52.430;10.586;2023-03-01T14:55:33;19.60;22.70
38183;DHT22;23991;52.430;10.586;2023-03-01T14:58:02;19.40;22.60
38183;DHT22;23991;52.430;10.586;2023-03-01T15:00:29;19.10;22.30
38183;DHT22;23991;52.430;10.586;2023-03-01T15:02:57;19.10;23.30
38183;DHT22;23991;52.430;10.586;2023-03-01T15:05:31;18.90;23.40
38183;DHT22;23991;52.430;10.586;2023-03-01T15:07:58;18.50;23.60
38183;DHT22;23991;52.430;10.586;2023-03-01T15:10:33;18.30;24.10
38183;DHT22;23991;52.430;10.586;2023-03-01T15:13:22;18.80;23.70
38183;DHT22;23991;52.430;10.586;2023-03-01T15:15:50;18.80;23.60
38183;DHT22;23991;52.430;10.586;2023-03-01T15:18:19;18.90;22.90
38183;DHT22;23991;52.430;10.586;2023-03-01T15:20:47;18.50;23.40
38183;DHT22;23991;52.430;10.586;2023-03-01T15:23:28;18.40;23.80
38183;DHT22;23991;52.430;10.586;2023-03-01T15:25:54;18.40;23.70
38183;DHT22;23991;52.430;10.586;2023-03-01T15:28:49;18.30;23.50
38183;DHT22;23991;52.430;10.586;2023-03-01T15:31:19;17.80;24.30
38183;DHT22;23991;52.430;10.586;2023-03-01T15:33:45;17.50;24.60
38183;DHT22;23991;52.430;10.586;2023-03-01T15:39:04;17.80;24.10
38183;DHT22;23991;52.430;10.586;2023-03-01T15:41:57;17.80;23.80
38183;DHT22;23991;52.430;10.586;2023-03-01T15:44:28;17.60;24.40
38183;DHT22;23991;52.430;10.586;2023-03-01T15:46:54;17.30;24.30
38183;DHT22;23991;52.430;10.586;2023-03-01T15:49:37;17.00;25.10
38183;DHT22;23991;52.430;10.586;2023-03-01T15:52:04;16.80;25.80
38183;DHT22;23991;52.430;10.586;2023-03-01T15:54:31;17.10;25.50
38183;DHT22;23991;52.430;10.586;2023-03-01T15:56:57;16.60;26.10
38183;DHT22;23991;52.430;10.586;2023-03-01T15:59:23;16.30;26.30
38183;DHT22;23991;52.430;10.586;2023-03-01T16:01:48;16.20;26.70
38183;DHT22;23991;52.430;10.586;2023-03-01T16:04:16;15.70;26.90
38183;DHT22;23991;52.430;10.586;2023-03-01T16:06:49;15.60;27.20
38183;DHT22;23991;52.430;10.586;2023-03-01T16:09:23;15.30;27.10
38183;DHT22;23991;52.430;10.586;2023-03-01T16:11:49;15.30;27.20
38183;DHT22;23991;52.430;10.586;2023-03-01T16:14:15;15.00;27.70
38183;DHT22;23991;52.430;10.586;2023-03-01T16:16:42;14.90;27.80
38183;DHT22;23991;52.430;10.586;2023-03-01T16:19:07;14.40;28.80
38183;DHT22;23991;52.430;10.586;2023-03-01T16:21:33;14.30;28.80
38183;DHT22;23991;52.430;10.586;2023-03-01T16:23:58;14.30;29.20
38183;DHT22;23991;52.430;10.586;2023-03-01T16:26:24;14.10;29.30
38183;DHT22;23991;52.430;10.586;2023-03-01T16:28:49;13.80;30.00
38183;DHT22;23991;52.430;10.586;2023-03-01T16:31:19;13.80;29.80
38183;DHT22;23991;52.430;10.586;2023-03-01T16:33:44;13.70;30.10
38183;DHT22;23991;52.430;10.586;2023-03-01T16:36:15;13.50;30.30
38183;DHT22;23991;52.430;10.586;2023-03-01T16:38:40;13.10;31.10
38183;DHT22;23991;52.430;10.586;2023-03-01T16:41:12;13.20;30.90
38183;DHT22;23991;52.430;10.586;2023-03-01T16:43:38;13.10;31.30
38183;DHT22;23991;52.430;10.586;2023-03-01T16:46:25;13.00;31.20
38183;DHT22;23991;52.430;10.586;2023-03-01T16:48:51;12.70;30.70
38183;DHT22;23991;52.430;10.586;2023-03-01T16:51:18;12.80;30.70
38183;DHT22;23991;52.430;10.586;2023-03-01T16:53:44;12.50;31.10
38183;DHT22;23991;52.430;10.586;2023-03-01T16:56:11;12.50;31.20